sensor_id;sensor_type;location;lat;lon;timestamp;P1;durP1;ratioP1;P2;durP2;ratioP2
29294;SDS011;16305;48.566;8.846;2022-08-21T00:01:01;4.50;;;2.20;;
29294;SDS011;16305;48.566;8.846;2022-08-21T00:03:31;3.20;;;2.20;;
29294;SDS011;16305;48.566;8.846;2022-08-21T00:05:57;3.03;;;2.10;;
29294;SDS011;16305;48.566;8.846;2022-08-21T00:08:23;3.77;;;2.30;;
29294;SDS011;16305;48.566;8.846;2022-08-21T00:10:49;3.20;;;2.20;;
29294;SDS011;16305;48.566;8.846;2022-08-21T00:13:15;4.57;;;2.23;;
29294;SDS011;16305;48.566;8.846;2022-08-21T00:15:42;2.40;;;2.20;;
29294;SDS011;16305;48.566;8.846;2022-08-21T00:18:08;3.27;;;2.30;;
29294;SDS011;16305;48.566;8.846;2022-08-21T00:20:35;2.93;;;2.33;;
29294;SDS011;16305;48.566;8.846;2022-08-21T00:23:01;6.40;;;2.60;;
29294;SDS011;16305;48.566;8.846;2022-08-21T00:25:27;5.63;;;2.53;;
29294;SDS011;16305;48.566;8.846;2022-08-21T00:27:53;2.67;;;1.90;;
29294;SDS011;16305;48.566;8.846;2022-08-21T00:30:20;3.77;;;1.90;;
29294;SDS011;16305;48.566;8.846;2022-08-21T00:32:47;4.17;;;2.20;;
29294;SDS011;16305;48.566;8.846;2022-08-21T00:35:15;4.23;;;2.27;;
29294;SDS011;16305;48.566;8.846;2022-08-21T00:37:42;3.60;;;2.50;;
29294;SDS011;16305;48.566;8.846;2022-08-21T00:40:10;2.93;;;2.60;;
29294;SDS011;16305;48.566;8.846;2022-08-21T00:42:39;4.90;;;2.37;;
29294;SDS011;16305;48.566;8.846;2022-08-21T00:45:06;2.80;;;2.20;;
29294;SDS011;16305;48.566;8.846;2022-08-21T00:47:32;4.03;;;2.00;;
29294;SDS011;16305;48.566;8.846;2022-08-21T00:49:58;2.37;;;1.90;;
29294;SDS011;16305;48.566;8.846;2022-08-21T00:52:25;2.80;;;2.10;;
29294;SDS011;16305;48.566;8.846;2022-08-21T00:54:53;3.50;;;2.37;;
29294;SDS011;16305;48.566;8.846;2022-08-21T00:57:22;2.80;;;2.27;;
29294;SDS011;16305;48.566;8.846;2022-08-21T00:59:51;4.77;;;2.37;;
29294;SDS011;16305;48.566;8.846;2022-08-21T01:02:20;3.93;;;2.90;;
29294;SDS011;16305;48.566;8.846;2022-08-21T01:04:45;6.93;;;2.57;;
29294;SDS011;16305;48.566;8.846;2022-08-21T01:07:11;5.07;;;2.77;;
29294;SDS011;16305;48.566;8.846;2022-08-21T01:09:37;4.37;;;2.33;;
29294;SDS011;16305;48.566;8.846;2022-08-21T01:12:04;3.77;;;2.70;;
29294;SDS011;16305;48.566;8.846;2022-08-21T01:14:29;4.10;;;2.60;;
29294;SDS011;16305;48.566;8.846;2022-08-21T01:16:56;3.67;;;2.60;;
29294;SDS011;16305;48.566;8.846;2022-08-21T01:19:23;2.90;;;2.33;;
29294;SDS011;16305;48.566;8.846;2022-08-21T01:21:50;2.80;;;2.47;;
29294;SDS011;16305;48.566;8.846;2022-08-21T01:24:16;2.50;;;2.30;;
29294;SDS011;16305;48.566;8.846;2022-08-21T01:26:42;4.20;;;3.17;;
29294;SDS011;16305;48.566;8.846;2022-08-21T01:31:44;3.23;;;2.90;;
29294;SDS011;16305;48.566;8.846;2022-08-21T01:34:11;3.80;;;2.67;;
29294;SDS011;16305;48.566;8.846;2022-08-21T01:36:37;2.47;;;2.27;;
29294;SDS011;16305;48.566;8.846;2022-08-21T01:39:03;5.20;;;2.60;;
29294;SDS011;16305;48.566;8.846;2022-08-21T01:41:29;2.43;;;2.23;;
29294;SDS011;16305;48.566;8.846;2022-08-21T01:43:55;3.03;;;2.73;;
29294;SDS011;16305;48.566;8.846;2022-08-21T01:46:21;3.77;;;2.67;;
29294;SDS011;16305;48.566;8.846;2022-08-21T01:48:46;3.57;;;2.30;;
29294;SDS011;16305;48.566;8.846;2022-08-21T01:51:12;7.23;;;2.70;;
29294;SDS011;16305;48.566;8.846;2022-08-21T01:53:38;4.73;;;3.10;;
29294;SDS011;16305;48.566;8.846;2022-08-21T01:56:05;3.80;;;2.47;;
29294;SDS011;16305;48.566;8.846;2022-08-21T01:58:33;5.00;;;2.50;;
29294;SDS011;16305;48.566;8.846;2022-08-21T02:00:59;4.63;;;2.77;;
29294;SDS011;16305;48.566;8.846;2022-08-21T02:03:26;4.00;;;2.80;;
29294;SDS011;16305;48.566;8.846;2022-08-21T02:05:53;5.33;;;2.73;;
29294;SDS011;16305;48.566;8.846;2022-08-21T02:08:18;5.30;;;2.63;;
29294;SDS011;16305;48.566;8.846;2022-08-21T02:10:47;4.90;;;2.90;;
29294;SDS011;16305;48.566;8.846;2022-08-21T02:13:14;4.73;;;2.47;;
29294;SDS011;16305;48.566;8.846;2022-08-21T02:15:39;8.07;;;3.43;;
29294;SDS011;16305;48.566;8.846;2022-08-21T02:18:05;5.27;;;2.93;;
29294;SDS011;16305;48.566;8.846;2022-08-21T02:20:36;6.07;;;2.87;;
29294;SDS011;16305;48.566;8.846;2022-08-21T02:23:03;4.87;;;2.60;;
29294;SDS011;16305;48.566;8.846;2022-08-21T02:25:30;3.50;;;2.67;;
29294;SDS011;16305;48.566;8.846;2022-08-21T02:27:56;4.13;;;3.10;;
29294;SDS011;16305;48.566;8.846;2022-08-21T02:30:25;4.00;;;2.87;;
29294;SDS011;16305;48.566;8.846;2022-08-21T02:32:55;5.40;;;2.97;;
29294;SDS011;16305;48.566;8.846;2022-08-21T02:35:21;4.63;;;3.40;;
29294;SDS011;16305;48.566;8.846;2022-08-21T02:37:48;4.03;;;2.77;;
29294;SDS011;16305;48.566;8.846;2022-08-21T02:40:17;3.13;;;2.67;;
29294;SDS011;16305;48.566;8.846;2022-08-21T02:42:44;6.23;;;2.90;;
29294;SDS011;16305;48.566;8.846;2022-08-21T02:45:11;6.40;;;3.23;;
29294;SDS011;16305;48.566;8.846;2022-08-21T02:47:37;6.07;;;2.83;;
29294;SDS011;16305;48.566;8.846;2022-08-21T02:50:03;3.80;;;3.10;;
29294;SDS011;16305;48.566;8.846;2022-08-21T02:52:30;3.93;;;3.00;;
29294;SDS011;16305;48.566;8.846;2022-08-21T02:54:55;5.30;;;2.63;;
29294;SDS011;16305;48.566;8.846;2022-08-21T02:57:21;3.23;;;2.80;;
29294;SDS011;16305;48.566;8.846;2022-08-21T02:59:46;5.13;;;2.83;;
29294;SDS011;16305;48.566;8.846;2022-08-21T03:02:12;9.40;;;3.33;;
29294;SDS011;16305;48.566;8.846;2022-08-21T03:04:37;4.10;;;3.27;;
29294;SDS011;16305;48.566;8.846;2022-08-21T03:07:03;5.10;;;3.07;;
29294;SDS011;16305;48.566;8.846;2022-08-21T03:09:29;4.93;;;3.20;;
29294;SDS011;16305;48.566;8.846;2022-08-21T03:11:54;3.13;;;2.70;;
29294;SDS011;16305;48.566;8.846;2022-08-21T03:14:20;7.50;;;3.00;;
29294;SDS011;16305;48.566;8.846;2022-08-21T03:16:45;4.50;;;2.90;;
29294;SDS011;16305;48.566;8.846;2022-08-21T03:19:11;4.13;;;2.83;;
29294;SDS011;16305;48.566;8.846;2022-08-21T03:21:37;5.13;;;3.13;;
29294;SDS011;16305;48.566;8.846;2022-08-21T03:24:03;4.03;;;3.13;;
29294;SDS011;16305;48.566;8.846;2022-08-21T03:26:29;5.67;;;3.40;;
29294;SDS011;16305;48.566;8.846;2022-08-21T03:28:55;4.13;;;2.80;;
29294;SDS011;16305;48.566;8.846;2022-08-21T03:31:22;7.13;;;2.90;;
29294;SDS011;16305;48.566;8.846;2022-08-21T03:33:48;5.87;;;3.23;;
29294;SDS011;16305;48.566;8.846;2022-08-21T03:36:14;3.87;;;3.17;;
29294;SDS011;16305;48.566;8.846;2022-08-21T03:38:41;5.07;;;3.07;;
29294;SDS011;16305;48.566;8.846;2022-08-21T03:41:07;5.00;;;3.00;;
29294;SDS011;16305;48.566;8.846;2022-08-21T03:43:33;4.57;;;3.47;;
29294;SDS011;16305;48.566;8.846;2022-08-21T03:46:00;5.13;;;3.10;;
29294;SDS011;16305;48.566;8.846;2022-08-21T03:48:27;6.20;;;3.10;;
29294;SDS011;16305;48.566;8.846;2022-08-21T03:50:52;4.77;;;3.23;;
29294;SDS011;16305;48.566;8.846;2022-08-21T03:53:18;6.53;;;3.00;;
29294;SDS011;16305;48.566;8.846;2022-08-21T03:55:45;6.07;;;2.93;;
29294;SDS011;16305;48.566;8.846;2022-08-21T03:58:11;5.30;;;3.53;;
29294;SDS011;16305;48.566;8.846;2022-08-21T04:00:38;4.57;;;3.90;;
29294;SDS011;16305;48.566;8.846;2022-08-21T04:03:03;5.03;;;3.87;;
29294;SDS011;16305;48.566;8.846;2022-08-21T04:05:29;5.07;;;4.23;;
29294;SDS011;16305;48.566;8.846;2022-08-21T04:07:56;5.47;;;3.40;;
29294;SDS011;16305;48.566;8.846;2022-08-21T04:10:23;6.50;;;4.07;;
29294;SDS011;16305;48.566;8.846;2022-08-21T04:12:50;6.00;;;4.30;;
29294;SDS011;16305;48.566;8.846;2022-08-21T04:15:16;5.83;;;4.10;;
29294;SDS011;16305;48.566;8.846;2022-08-21T04:17:41;5.03;;;4.10;;
29294;SDS011;16305;48.566;8.846;2022-08-21T04:20:07;5.40;;;3.83;;
29294;SDS011;16305;48.566;8.846;2022-08-21T04:22:33;5.23;;;3.70;;
29294;SDS011;16305;48.566;8.846;2022-08-21T04:24:59;5.60;;;3.87;;
29294;SDS011;16305;48.566;8.846;2022-08-21T04:27:24;6.53;;;4.30;;
29294;SDS011;16305;48.566;8.846;2022-08-21T04:29:50;9.43;;;4.40;;
29294;SDS011;16305;48.566;8.846;2022-08-21T04:32:22;7.37;;;4.60;;
29294;SDS011;16305;48.566;8.846;2022-08-21T04:34:48;4.83;;;4.37;;
29294;SDS011;16305;48.566;8.846;2022-08-21T04:37:14;6.13;;;4.60;;
29294;SDS011;16305;48.566;8.846;2022-08-21T04:39:40;6.47;;;4.83;;
29294;SDS011;16305;48.566;8.846;2022-08-21T04:42:07;9.70;;;4.40;;
29294;SDS011;16305;48.566;8.846;2022-08-21T04:44:33;5.33;;;4.83;;
29294;SDS011;16305;48.566;8.846;2022-08-21T04:46:59;5.43;;;4.10;;
29294;SDS011;16305;48.566;8.846;2022-08-21T04:49:24;5.67;;;5.00;;
29294;SDS011;16305;48.566;8.846;2022-08-21T04:51:50;6.67;;;4.80;;
29294;SDS011;16305;48.566;8.846;2022-08-21T04:54:24;5.33;;;4.47;;
29294;SDS011;16305;48.566;8.846;2022-08-21T04:56:58;6.00;;;4.17;;
29294;SDS011;16305;48.566;8.846;2022-08-21T04:59:38;8.13;;;4.23;;
29294;SDS011;16305;48.566;8.846;2022-08-21T05:02:07;5.60;;;4.03;;
29294;SDS011;16305;48.566;8.846;2022-08-21T05:04:36;4.40;;;4.00;;
29294;SDS011;16305;48.566;8.846;2022-08-21T05:07:09;7.53;;;4.60;;
29294;SDS011;16305;48.566;8.846;2022-08-21T05:09:39;5.13;;;4.10;;
29294;SDS011;16305;48.566;8.846;2022-08-21T05:12:04;5.80;;;4.20;;
29294;SDS011;16305;48.566;8.846;2022-08-21T05:14:30;6.10;;;4.20;;
29294;SDS011;16305;48.566;8.846;2022-08-21T05:16:56;7.20;;;4.47;;
29294;SDS011;16305;48.566;8.846;2022-08-21T05:19:21;6.07;;;3.70;;
29294;SDS011;16305;48.566;8.846;2022-08-21T05:21:48;5.23;;;4.10;;
29294;SDS011;16305;48.566;8.846;2022-08-21T05:24:14;6.10;;;4.00;;
29294;SDS011;16305;48.566;8.846;2022-08-21T05:26:40;6.43;;;4.00;;
29294;SDS011;16305;48.566;8.846;2022-08-21T05:29:06;5.27;;;4.00;;
29294;SDS011;16305;48.566;8.846;2022-08-21T05:31:32;6.33;;;4.30;;
29294;SDS011;16305;48.566;8.846;2022-08-21T05:33:58;7.53;;;4.13;;
29294;SDS011;16305;48.566;8.846;2022-08-21T05:36:24;4.83;;;4.33;;
29294;SDS011;16305;48.566;8.846;2022-08-21T05:38:50;4.93;;;3.77;;
29294;SDS011;16305;48.566;8.846;2022-08-21T05:41:15;4.63;;;3.83;;
29294;SDS011;16305;48.566;8.846;2022-08-21T05:43:41;6.90;;;4.03;;
29294;SDS011;16305;48.566;8.846;2022-08-21T05:46:07;6.73;;;4.30;;
29294;SDS011;16305;48.566;8.846;2022-08-21T05:48:33;5.67;;;4.30;;
29294;SDS011;16305;48.566;8.846;2022-08-21T05:51:07;6.27;;;4.67;;
29294;SDS011;16305;48.566;8.846;2022-08-21T05:53:36;6.57;;;4.30;;
29294;SDS011;16305;48.566;8.846;2022-08-21T05:56:02;8.13;;;4.33;;
29294;SDS011;16305;48.566;8.846;2022-08-21T05:58:29;4.53;;;4.03;;
29294;SDS011;16305;48.566;8.846;2022-08-21T06:00:56;6.20;;;4.30;;
29294;SDS011;16305;48.566;8.846;2022-08-21T06:03:25;5.53;;;4.10;;
29294;SDS011;16305;48.566;8.846;2022-08-21T06:05:53;4.43;;;3.80;;
29294;SDS011;16305;48.566;8.846;2022-08-21T06:08:19;4.37;;;3.50;;
29294;SDS011;16305;48.566;8.846;2022-08-21T06:10:46;5.73;;;3.90;;
29294;SDS011;16305;48.566;8.846;2022-08-21T06:13:13;6.10;;;3.97;;
29294;SDS011;16305;48.566;8.846;2022-08-21T06:15:40;4.93;;;3.93;;
29294;SDS011;16305;48.566;8.846;2022-08-21T06:18:05;7.77;;;4.07;;
29294;SDS011;16305;48.566;8.846;2022-08-21T06:20:31;5.90;;;3.90;;
29294;SDS011;16305;48.566;8.846;2022-08-21T06:22:57;5.97;;;3.67;;
29294;SDS011;16305;48.566;8.846;2022-08-21T06:25:23;6.10;;;3.70;;
29294;SDS011;16305;48.566;8.846;2022-08-21T06:27:49;4.87;;;3.70;;
29294;SDS011;16305;48.566;8.846;2022-08-21T06:30:15;6.40;;;4.00;;
29294;SDS011;16305;48.566;8.846;2022-08-21T06:32:41;4.50;;;3.80;;
29294;SDS011;16305;48.566;8.846;2022-08-21T06:35:07;4.63;;;3.50;;
29294;SDS011;16305;48.566;8.846;2022-08-21T06:37:33;3.77;;;3.30;;
29294;SDS011;16305;48.566;8.846;2022-08-21T06:39:58;5.10;;;3.87;;
29294;SDS011;16305;48.566;8.846;2022-08-21T06:42:24;5.07;;;4.03;;
29294;SDS011;16305;48.566;8.846;2022-08-21T06:44:49;5.40;;;4.37;;
29294;SDS011;16305;48.566;8.846;2022-08-21T06:47:15;4.97;;;4.20;;
29294;SDS011;16305;48.566;8.846;2022-08-21T06:49:41;4.13;;;3.73;;
29294;SDS011;16305;48.566;8.846;2022-08-21T06:52:10;5.37;;;4.40;;
29294;SDS011;16305;48.566;8.846;2022-08-21T06:54:36;4.63;;;4.07;;
29294;SDS011;16305;48.566;8.846;2022-08-21T06:57:03;5.10;;;3.57;;
29294;SDS011;16305;48.566;8.846;2022-08-21T06:59:29;4.40;;;4.00;;
29294;SDS011;16305;48.566;8.846;2022-08-21T07:01:55;5.77;;;4.20;;
29294;SDS011;16305;48.566;8.846;2022-08-21T07:04:20;5.70;;;4.10;;
29294;SDS011;16305;48.566;8.846;2022-08-21T07:06:46;5.03;;;3.70;;
29294;SDS011;16305;48.566;8.846;2022-08-21T07:09:11;7.00;;;4.30;;
29294;SDS011;16305;48.566;8.846;2022-08-21T07:11:37;5.07;;;4.13;;
29294;SDS011;16305;48.566;8.846;2022-08-21T07:14:03;4.90;;;4.23;;
29294;SDS011;16305;48.566;8.846;2022-08-21T07:16:29;4.93;;;4.10;;
29294;SDS011;16305;48.566;8.846;2022-08-21T07:18:54;6.20;;;3.97;;
29294;SDS011;16305;48.566;8.846;2022-08-21T07:21:20;5.83;;;4.30;;
29294;SDS011;16305;48.566;8.846;2022-08-21T07:23:47;7.00;;;4.40;;
29294;SDS011;16305;48.566;8.846;2022-08-21T07:26:15;6.53;;;4.20;;
29294;SDS011;16305;48.566;8.846;2022-08-21T07:28:43;5.33;;;4.73;;
29294;SDS011;16305;48.566;8.846;2022-08-21T07:31:09;6.03;;;4.30;;
29294;SDS011;16305;48.566;8.846;2022-08-21T07:33:38;5.90;;;4.20;;
29294;SDS011;16305;48.566;8.846;2022-08-21T07:36:04;6.23;;;4.53;;
29294;SDS011;16305;48.566;8.846;2022-08-21T07:38:30;5.97;;;4.17;;
29294;SDS011;16305;48.566;8.846;2022-08-21T07:40:56;5.67;;;4.10;;
29294;SDS011;16305;48.566;8.846;2022-08-21T07:43:24;6.43;;;4.50;;
29294;SDS011;16305;48.566;8.846;2022-08-21T07:45:50;7.20;;;4.30;;
29294;SDS011;16305;48.566;8.846;2022-08-21T07:48:18;5.50;;;4.37;;
29294;SDS011;16305;48.566;8.846;2022-08-21T07:50:43;8.67;;;4.43;;
29294;SDS011;16305;48.566;8.846;2022-08-21T07:53:09;5.10;;;4.53;;
29294;SDS011;16305;48.566;8.846;2022-08-21T07:55:35;8.30;;;4.70;;
29294;SDS011;16305;48.566;8.846;2022-08-21T07:58:00;8.60;;;4.50;;
29294;SDS011;16305;48.566;8.846;2022-08-21T08:00:26;6.03;;;4.73;;
29294;SDS011;16305;48.566;8.846;2022-08-21T08:02:53;5.97;;;4.43;;
29294;SDS011;16305;48.566;8.846;2022-08-21T08:05:21;5.20;;;4.70;;
29294;SDS011;16305;48.566;8.846;2022-08-21T08:07:49;7.10;;;4.90;;
29294;SDS011;16305;48.566;8.846;2022-08-21T08:10:14;9.07;;;5.03;;
29294;SDS011;16305;48.566;8.846;2022-08-21T08:12:41;5.30;;;4.13;;
29294;SDS011;16305;48.566;8.846;2022-08-21T08:15:08;6.60;;;4.93;;
29294;SDS011;16305;48.566;8.846;2022-08-21T08:17:36;7.93;;;5.10;;
29294;SDS011;16305;48.566;8.846;2022-08-21T08:20:03;8.43;;;4.67;;
29294;SDS011;16305;48.566;8.846;2022-08-21T08:22:34;6.70;;;4.30;;
29294;SDS011;16305;48.566;8.846;2022-08-21T08:25:00;6.80;;;4.33;;
29294;SDS011;16305;48.566;8.846;2022-08-21T08:27:26;7.80;;;4.77;;
29294;SDS011;16305;48.566;8.846;2022-08-21T08:29:52;5.23;;;4.17;;
29294;SDS011;16305;48.566;8.846;2022-08-21T08:32:17;4.57;;;3.90;;
29294;SDS011;16305;48.566;8.846;2022-08-21T08:34:43;4.23;;;3.40;;
29294;SDS011;16305;48.566;8.846;2022-08-21T08:37:09;5.77;;;3.47;;
29294;SDS011;16305;48.566;8.846;2022-08-21T08:39:35;4.27;;;3.17;;
29294;SDS011;16305;48.566;8.846;2022-08-21T08:42:08;5.97;;;4.00;;
29294;SDS011;16305;48.566;8.846;2022-08-21T08:44:41;6.93;;;3.90;;
29294;SDS011;16305;48.566;8.846;2022-08-21T08:47:08;4.30;;;3.30;;
29294;SDS011;16305;48.566;8.846;2022-08-21T08:52:02;3.50;;;3.10;;
29294;SDS011;16305;48.566;8.846;2022-08-21T08:54:35;3.93;;;2.77;;
29294;SDS011;16305;48.566;8.846;2022-08-21T08:57:16;5.97;;;2.80;;
29294;SDS011;16305;48.566;8.846;2022-08-21T08:59:44;5.70;;;2.93;;
29294;SDS011;16305;48.566;8.846;2022-08-21T09:02:14;3.70;;;2.50;;
29294;SDS011;16305;48.566;8.846;2022-08-21T09:04:40;3.43;;;2.67;;
29294;SDS011;16305;48.566;8.846;2022-08-21T09:15:50;4.70;;;2.70;;
29294;SDS011;16305;48.566;8.846;2022-08-21T09:21:22;5.80;;;2.70;;
29294;SDS011;16305;48.566;8.846;2022-08-21T09:26:57;3.27;;;2.10;;
29294;SDS011;16305;48.566;8.846;2022-08-21T09:29:44;4.20;;;2.77;;
29294;SDS011;16305;48.566;8.846;2022-08-21T09:34:55;3.10;;;2.43;;
29294;SDS011;16305;48.566;8.846;2022-08-21T09:37:22;6.10;;;3.17;;
29294;SDS011;16305;48.566;8.846;2022-08-21T09:39:49;4.10;;;2.40;;
29294;SDS011;16305;48.566;8.846;2022-08-21T09:42:21;3.23;;;2.57;;
29294;SDS011;16305;48.566;8.846;2022-08-21T09:44:48;2.63;;;2.10;;
29294;SDS011;16305;48.566;8.846;2022-08-21T09:47:14;5.90;;;2.50;;
29294;SDS011;16305;48.566;8.846;2022-08-21T09:49:43;5.53;;;2.50;;
29294;SDS011;16305;48.566;8.846;2022-08-21T09:52:19;6.23;;;2.23;;
29294;SDS011;16305;48.566;8.846;2022-08-21T09:54:49;4.73;;;2.37;;
29294;SDS011;16305;48.566;8.846;2022-08-21T09:57:27;5.73;;;3.03;;
29294;SDS011;16305;48.566;8.846;2022-08-21T10:00:19;4.33;;;2.40;;
29294;SDS011;16305;48.566;8.846;2022-08-21T10:02:50;6.50;;;2.33;;
29294;SDS011;16305;48.566;8.846;2022-08-21T10:07:43;3.33;;;2.33;;
29294;SDS011;16305;48.566;8.846;2022-08-21T10:13:00;3.80;;;2.37;;
29294;SDS011;16305;48.566;8.846;2022-08-21T10:18:22;5.13;;;2.60;;
29294;SDS011;16305;48.566;8.846;2022-08-21T10:23:54;5.57;;;2.03;;
29294;SDS011;16305;48.566;8.846;2022-08-21T10:26:26;5.47;;;2.07;;
29294;SDS011;16305;48.566;8.846;2022-08-21T10:29:03;3.40;;;2.10;;
29294;SDS011;16305;48.566;8.846;2022-08-21T10:31:57;3.03;;;2.33;;
29294;SDS011;16305;48.566;8.846;2022-08-21T10:37:54;4.47;;;1.90;;
29294;SDS011;16305;48.566;8.846;2022-08-21T10:46:06;2.53;;;2.10;;
29294;SDS011;16305;48.566;8.846;2022-08-21T10:48:46;4.10;;;2.07;;
29294;SDS011;16305;48.566;8.846;2022-08-21T10:51:23;4.40;;;2.20;;
29294;SDS011;16305;48.566;8.846;2022-08-21T10:56:43;5.03;;;3.10;;
29294;SDS011;16305;48.566;8.846;2022-08-21T11:02:01;4.40;;;2.17;;
29294;SDS011;16305;48.566;8.846;2022-08-21T11:05:01;3.97;;;2.30;;
29294;SDS011;16305;48.566;8.846;2022-08-21T11:07:33;4.80;;;2.10;;
29294;SDS011;16305;48.566;8.846;2022-08-21T11:10:13;5.43;;;2.10;;
29294;SDS011;16305;48.566;8.846;2022-08-21T11:15:15;4.13;;;2.00;;
29294;SDS011;16305;48.566;8.846;2022-08-21T11:17:52;4.83;;;2.10;;
29294;SDS011;16305;48.566;8.846;2022-08-21T11:20:29;3.90;;;1.93;;
29294;SDS011;16305;48.566;8.846;2022-08-21T11:23:13;3.03;;;1.97;;
29294;SDS011;16305;48.566;8.846;2022-08-21T11:25:45;3.63;;;1.93;;
29294;SDS011;16305;48.566;8.846;2022-08-21T11:28:26;4.27;;;2.00;;
29294;SDS011;16305;48.566;8.846;2022-08-21T11:36:32;4.70;;;2.10;;
29294;SDS011;16305;48.566;8.846;2022-08-21T11:39:15;2.50;;;1.93;;
29294;SDS011;16305;48.566;8.846;2022-08-21T11:42:02;4.93;;;2.00;;
29294;SDS011;16305;48.566;8.846;2022-08-21T11:45:07;4.83;;;1.80;;
29294;SDS011;16305;48.566;8.846;2022-08-21T11:47:58;3.43;;;1.80;;
29294;SDS011;16305;48.566;8.846;2022-08-21T11:50:55;4.50;;;2.30;;
29294;SDS011;16305;48.566;8.846;2022-08-21T11:53:24;2.87;;;1.90;;
29294;SDS011;16305;48.566;8.846;2022-08-21T11:58:42;2.93;;;1.73;;
29294;SDS011;16305;48.566;8.846;2022-08-21T12:01:16;4.53;;;2.07;;
29294;SDS011;16305;48.566;8.846;2022-08-21T12:03:59;3.17;;;1.53;;
29294;SDS011;16305;48.566;8.846;2022-08-21T12:06:34;3.83;;;1.60;;
29294;SDS011;16305;48.566;8.846;2022-08-21T12:09:09;3.07;;;1.90;;
29294;SDS011;16305;48.566;8.846;2022-08-21T12:14:45;5.07;;;2.20;;
29294;SDS011;16305;48.566;8.846;2022-08-21T12:17:20;1.97;;;1.50;;
29294;SDS011;16305;48.566;8.846;2022-08-21T12:20:01;4.03;;;1.70;;
29294;SDS011;16305;48.566;8.846;2022-08-21T12:22:55;4.67;;;1.80;;
29294;SDS011;16305;48.566;8.846;2022-08-21T12:28:49;8.00;;;2.27;;
29294;SDS011;16305;48.566;8.846;2022-08-21T12:31:24;3.47;;;1.70;;
29294;SDS011;16305;48.566;8.846;2022-08-21T12:33:52;2.10;;;1.80;;
29294;SDS011;16305;48.566;8.846;2022-08-21T12:36:22;3.03;;;1.80;;
29294;SDS011;16305;48.566;8.846;2022-08-21T12:38:56;2.07;;;1.70;;
29294;SDS011;16305;48.566;8.846;2022-08-21T12:41:37;2.60;;;1.70;;
29294;SDS011;16305;48.566;8.846;2022-08-21T12:44:12;3.45;;;1.80;;
29294;SDS011;16305;48.566;8.846;2022-08-21T12:46:43;2.53;;;1.60;;
29294;SDS011;16305;48.566;8.846;2022-08-21T12:49:13;3.28;;;1.80;;
29294;SDS011;16305;48.566;8.846;2022-08-21T12:52:05;3.45;;;1.70;;
29294;SDS011;16305;48.566;8.846;2022-08-21T12:54:41;3.35;;;1.58;;
29294;SDS011;16305;48.566;8.846;2022-08-21T12:57:16;2.83;;;1.75;;
29294;SDS011;16305;48.566;8.846;2022-08-21T12:59:44;2.35;;;1.60;;
29294;SDS011;16305;48.566;8.846;2022-08-21T13:02:19;3.15;;;1.80;;
29294;SDS011;16305;48.566;8.846;2022-08-21T13:04:48;2.13;;;1.33;;
29294;SDS011;16305;48.566;8.846;2022-08-21T13:07:15;1.75;;;1.13;;
29294;SDS011;16305;48.566;8.846;2022-08-21T13:09:55;2.45;;;1.40;;
29294;SDS011;16305;48.566;8.846;2022-08-21T13:12:44;1.70;;;1.20;;
29294;SDS011;16305;48.566;8.846;2022-08-21T13:15:11;2.38;;;1.58;;
29294;SDS011;16305;48.566;8.846;2022-08-21T13:17:38;2.33;;;1.60;;
29294;SDS011;16305;48.566;8.846;2022-08-21T13:20:18;3.13;;;1.60;;
29294;SDS011;16305;48.566;8.846;2022-08-21T13:22:49;3.33;;;1.70;;
29294;SDS011;16305;48.566;8.846;2022-08-21T13:25:16;1.60;;;1.35;;
29294;SDS011;16305;48.566;8.846;2022-08-21T13:27:44;4.47;;;1.55;;
29294;SDS011;16305;48.566;8.846;2022-08-21T13:30:22;2.33;;;1.70;;
29294;SDS011;16305;48.566;8.846;2022-08-21T13:32:49;1.85;;;1.40;;
29294;SDS011;16305;48.566;8.846;2022-08-21T13:35:21;2.13;;;1.50;;
29294;SDS011;16305;48.566;8.846;2022-08-21T13:37:50;2.10;;;1.52;;
29294;SDS011;16305;48.566;8.846;2022-08-21T13:40:28;2.08;;;1.48;;
29294;SDS011;16305;48.566;8.846;2022-08-21T13:43:04;2.00;;;1.38;;
29294;SDS011;16305;48.566;8.846;2022-08-21T13:45:37;2.17;;;1.58;;
29294;SDS011;16305;48.566;8.846;2022-08-21T13:48:03;3.08;;;1.65;;
29294;SDS011;16305;48.566;8.846;2022-08-21T13:50:30;2.78;;;1.20;;
29294;SDS011;16305;48.566;8.846;2022-08-21T13:53:03;2.38;;;1.60;;
29294;SDS011;16305;48.566;8.846;2022-08-21T13:55:35;2.20;;;1.52;;
29294;SDS011;16305;48.566;8.846;2022-08-21T13:58:03;2.55;;;1.60;;
29294;SDS011;16305;48.566;8.846;2022-08-21T14:00:30;3.50;;;1.58;;
29294;SDS011;16305;48.566;8.846;2022-08-21T14:03:05;3.95;;;1.60;;
29294;SDS011;16305;48.566;8.846;2022-08-21T14:05:35;1.77;;;1.40;;
29294;SDS011;16305;48.566;8.846;2022-08-21T14:08:18;1.77;;;1.30;;
29294;SDS011;16305;48.566;8.846;2022-08-21T14:10:59;2.75;;;1.63;;
29294;SDS011;16305;48.566;8.846;2022-08-21T14:13:48;2.00;;;1.80;;
29294;SDS011;16305;48.566;8.846;2022-08-21T14:18:53;3.55;;;1.98;;
29294;SDS011;16305;48.566;8.846;2022-08-21T14:21:29;2.05;;;1.42;;
29294;SDS011;16305;48.566;8.846;2022-08-21T14:24:05;3.20;;;1.70;;
29294;SDS011;16305;48.566;8.846;2022-08-21T14:26:42;2.65;;;1.60;;
29294;SDS011;16305;48.566;8.846;2022-08-21T14:29:15;4.20;;;1.60;;
29294;SDS011;16305;48.566;8.846;2022-08-21T14:31:42;1.80;;;1.67;;
29294;SDS011;16305;48.566;8.846;2022-08-21T14:34:14;2.97;;;1.60;;
29294;SDS011;16305;48.566;8.846;2022-08-21T14:36:41;2.60;;;1.65;;
29294;SDS011;16305;48.566;8.846;2022-08-21T14:39:08;2.85;;;1.55;;
29294;SDS011;16305;48.566;8.846;2022-08-21T14:41:34;3.78;;;1.60;;
29294;SDS011;16305;48.566;8.846;2022-08-21T14:44:01;2.40;;;1.40;;
29294;SDS011;16305;48.566;8.846;2022-08-21T14:46:28;2.25;;;1.45;;
29294;SDS011;16305;48.566;8.846;2022-08-21T14:48:55;2.08;;;1.70;;
29294;SDS011;16305;48.566;8.846;2022-08-21T14:51:21;2.08;;;1.40;;
29294;SDS011;16305;48.566;8.846;2022-08-21T14:53:47;3.20;;;1.70;;
29294;SDS011;16305;48.566;8.846;2022-08-21T14:56:13;1.60;;;1.40;;
29294;SDS011;16305;48.566;8.846;2022-08-21T14:58:44;2.85;;;1.42;;
29294;SDS011;16305;48.566;8.846;2022-08-21T15:01:13;2.50;;;1.52;;
29294;SDS011;16305;48.566;8.846;2022-08-21T15:03:40;2.83;;;1.65;;
29294;SDS011;16305;48.566;8.846;2022-08-21T15:06:06;2.13;;;1.40;;
29294;SDS011;16305;48.566;8.846;2022-08-21T15:08:32;3.63;;;1.90;;
29294;SDS011;16305;48.566;8.846;2022-08-21T15:10:58;3.17;;;1.58;;
29294;SDS011;16305;48.566;8.846;2022-08-21T15:13:26;2.92;;;1.50;;
29294;SDS011;16305;48.566;8.846;2022-08-21T15:15:51;1.90;;;1.60;;
29294;SDS011;16305;48.566;8.846;2022-08-21T15:18:21;1.63;;;1.20;;
29294;SDS011;16305;48.566;8.846;2022-08-21T15:20:48;1.58;;;1.48;;
29294;SDS011;16305;48.566;8.846;2022-08-21T15:23:14;2.38;;;1.70;;
29294;SDS011;16305;48.566;8.846;2022-08-21T15:25:41;2.35;;;1.70;;
29294;SDS011;16305;48.566;8.846;2022-08-21T15:28:08;2.65;;;1.48;;
29294;SDS011;16305;48.566;8.846;2022-08-21T15:30:35;5.88;;;2.08;;
29294;SDS011;16305;48.566;8.846;2022-08-21T15:33:02;3.08;;;2.00;;
29294;SDS011;16305;48.566;8.846;2022-08-21T15:35:28;2.95;;;1.88;;
29294;SDS011;16305;48.566;8.846;2022-08-21T15:37:53;2.90;;;1.60;;
29294;SDS011;16305;48.566;8.846;2022-08-21T15:40:19;2.90;;;1.80;;
29294;SDS011;16305;48.566;8.846;2022-08-21T15:42:44;2.60;;;1.75;;
29294;SDS011;16305;48.566;8.846;2022-08-21T15:45:11;1.73;;;1.60;;
29294;SDS011;16305;48.566;8.846;2022-08-21T15:47:38;2.75;;;1.85;;
29294;SDS011;16305;48.566;8.846;2022-08-21T15:52:45;2.97;;;1.80;;
29294;SDS011;16305;48.566;8.846;2022-08-21T15:55:11;2.92;;;1.70;;
29294;SDS011;16305;48.566;8.846;2022-08-21T15:57:37;3.20;;;1.75;;
29294;SDS011;16305;48.566;8.846;2022-08-21T16:00:14;2.08;;;1.70;;
29294;SDS011;16305;48.566;8.846;2022-08-21T16:02:43;2.20;;;1.65;;
29294;SDS011;16305;48.566;8.846;2022-08-21T16:05:11;2.25;;;1.70;;
29294;SDS011;16305;48.566;8.846;2022-08-21T16:07:38;2.20;;;1.60;;
29294;SDS011;16305;48.566;8.846;2022-08-21T16:10:04;2.50;;;1.80;;